Time;durP1;ratioP1;P1;durP2;ratioP2;P2;SDS_P1;SDS_P2;PMS_P1;PMS_P2;Temp;Humidity;BMP_temperature;BMP_pressure;BME280_temperature;BME280_humidity;BME280_pressure;Samples;Min_cycle;Max_cycle;Signal;HPM_P1;HPM_P2
2021/12/24 00:01:16;;;;;;;30.60;12.70;;;;;;;-4.26;71.77;97871.74;102922;1319;111005;-78
2021/12/24 00:03:46;;;;;;;29.60;12.10;;;;;;;-4.25;71.76;97864.78;103250;1321;97106;-77
2021/12/24 00:06:15;;;;;;;31.00;13.00;;;;;;;-4.22;71.78;97863.66;103053;1322;105915;-76
2021/12/24 00:08:46;;;;;;;31.50;12.70;;;;;;;-4.20;72.01;97855.64;103037;1320;95614;-76
2021/12/24 00:11:16;;;;;;;29.30;13.00;;;;;;;-4.17;71.81;97852.80;103036;1322;97903;-78
2021/12/24 00:13:48;;;;;;;29.30;12.60;;;;;;;-4.15;71.87;97848.38;103027;1322;111906;-76
2021/12/24 00:18:50;;;;;;;28.70;12.10;;;;;;;-4.10;71.61;97826.06;103074;1316;107840;-75
2021/12/24 00:35:27;;;;;;;29.20;13.20;;;;;;;-4.04;71.08;97799.87;102871;1320;97947;-75
2021/12/24 00:38:04;;;;;;;28.20;11.60;;;;;;;-4.07;71.14;97798.44;103010;1320;97937;-75
2021/12/24 00:40:39;;;;;;;32.30;14.10;;;;;;;-4.09;71.16;97795.90;103066;1316;110665;-75
2021/12/24 00:43:08;;;;;;;27.10;12.20;;;;;;;-4.11;71.25;97785.24;103136;1317;96403;-77
2021/12/24 00:45:42;;;;;;;28.70;12.60;;;;;;;-4.12;71.39;97780.06;102990;1317;107815;-76
2021/12/24 00:48:12;;;;;;;28.20;12.20;;;;;;;-4.14;71.34;97771.30;103131;1317;97966;-76
2021/12/24 00:51:19;;;;;;;30.90;13.80;;;;;;;-4.17;71.45;97772.80;102880;1322;96037;-75
2021/12/24 00:56:07;;;;;;;31.70;14.00;;;;;;;-4.20;71.55;97762.33;103042;1316;97938;-76
2021/12/24 00:58:37;;;;;;;32.90;15.20;;;;;;;-4.21;71.75;97758.54;103094;1319;107944;-76
2021/12/24 01:01:11;;;;;;;28.40;12.70;;;;;;;-4.24;71.86;97759.68;103188;1315;96564;-77
2021/12/24 01:03:40;;;;;;;33.50;14.80;;;;;;;-4.27;72.00;97757.56;103047;1316;97771;-76
2021/12/24 01:06:10;;;;;;;34.60;14.10;;;;;;;-4.31;72.32;97750.76;103106;1316;111557;-75
2021/12/24 01:08:38;;;;;;;31.70;13.30;;;;;;;-4.33;72.18;97746.52;103141;1316;97878;-75
2021/12/24 01:11:09;;;;;;;34.70;15.80;;;;;;;-4.34;72.45;97749.81;103118;1319;109819;-75
2021/12/24 01:13:37;;;;;;;33.00;15.80;;;;;;;-4.36;72.38;97737.93;103124;1315;95328;-75
2021/12/24 01:16:26;;;;;;;30.40;13.50;;;;;;;-4.36;72.60;97735.00;103078;1319;97927;-74
2021/12/24 01:19:02;;;;;;;32.40;15.00;;;;;;;-4.36;72.98;97733.09;103007;1319;111526;-78
2021/12/24 01:24:14;;;;;;;30.00;12.10;;;;;;;-4.39;73.50;97713.27;103086;1316;106355;-76
2021/12/24 01:42:51;;;;;;;32.50;14.80;;;;;;;-4.45;73.66;97672.13;103121;1317;97908;-75
2021/12/24 01:45:28;;;;;;;31.10;13.60;;;;;;;-4.46;73.70;97660.05;102917;1320;111654;-76
2021/12/24 01:48:10;;;;;;;33.50;14.60;;;;;;;-4.45;73.85;97660.20;103107;1317;97919;-75
2021/12/24 01:50:47;;;;;;;34.60;15.10;;;;;;;-4.45;74.20;97647.91;103038;1316;107734;-77
2021/12/24 01:53:21;;;;;;;30.40;13.40;;;;;;;-4.49;74.35;97640.42;103102;1319;98126;-76
2021/12/24 01:55:52;;;;;;;30.30;13.10;;;;;;;-4.50;74.41;97644.44;103078;1319;98015;-74
2021/12/24 01:58:26;;;;;;;31.50;14.10;;;;;;;-4.53;74.35;97638.83;103084;1316;111527;-75
2021/12/24 02:00:58;;;;;;;32.70;15.70;;;;;;;-4.52;74.48;97643.63;103255;1317;98540;-73
2021/12/24 02:03:26;;;;;;;32.30;14.10;;;;;;;-4.51;74.42;97631.52;103088;1316;107806;-74
2021/12/24 02:05:54;;;;;;;32.80;14.50;;;;;;;-4.50;74.89;97621.42;103155;1317;97998;-75
2021/12/24 02:08:22;;;;;;;32.40;14.30;;;;;;;-4.51;74.76;97615.23;103230;1317;95360;-75
2021/12/24 02:10:52;;;;;;;31.50;13.90;;;;;;;-4.51;74.92;97613.70;103054;1316;111562;-74
2021/12/24 02:13:21;;;;;;;30.80;13.90;;;;;;;-4.52;74.78;97611.12;103039;1317;97149;-73
2021/12/24 02:29:43;;;;;;;33.20;15.10;;;;;;;-4.50;75.25;97565.21;103157;1316;107813;-76
2021/12/24 02:32:11;;;;;;;30.20;14.80;;;;;;;-4.49;75.78;97559.28;103185;1315;98460;-76
2021/12/24 02:34:40;;;;;;;32.30;14.90;;;;;;;-4.51;75.53;97560.73;103239;1314;97901;-76
2021/12/24 02:37:08;;;;;;;38.30;16.60;;;;;;;-4.50;75.65;97559.14;103053;1320;111505;-77
2021/12/24 02:39:37;;;;;;;31.10;15.50;;;;;;;-4.50;75.79;97550.15;103261;1317;95782;-78
2021/12/24 02:42:24;;;;;;;34.40;16.10;;;;;;;-4.51;76.02;97550.33;103197;1316;109049;-77
2021/12/24 02:44:52;;;;;;;36.10;15.80;;;;;;;-4.52;76.02;97545.20;103214;1316;98024;-79
2021/12/24 02:55:15;;;;;;;31.20;14.90;;;;;;;-4.54;76.24;97523.84;102998;1319;107983;-76
2021/12/24 02:57:44;;;;;;;36.30;16.60;;;;;;;-4.52;76.56;97506.63;103057;1317;97322;-74
2021/12/24 03:00:19;;;;;;;32.50;15.40;;;;;;;-4.53;76.38;97515.28;103185;1321;95194;-76
2021/12/24 03:02:49;;;;;;;34.20;15.60;;;;;;;-4.50;76.11;97519.52;103072;1319;112109;-76
2021/12/24 03:05:20;;;;;;;34.30;17.00;;;;;;;-4.46;76.64;97513.66;103251;1316;97927;-75
2021/12/24 03:07:50;;;;;;;33.70;15.00;;;;;;;-4.47;76.56;97504.89;103242;1316;107998;-74
2021/12/24 03:10:21;;;;;;;31.30;15.70;;;;;;;-4.47;76.78;97497.63;103239;1316;98017;-75
2021/12/24 03:12:52;;;;;;;33.00;15.50;;;;;;;-4.47;76.83;97496.23;103217;1320;97921;-76
2021/12/24 03:15:24;;;;;;;33.80;15.80;;;;;;;-4.46;77.09;97480.80;103082;1319;111531;-75
2021/12/24 03:17:59;;;;;;;34.90;16.20;;;;;;;-4.47;77.29;97479.62;103019;1317;95305;-74
2021/12/24 03:20:33;;;;;;;;;;;;;;;-4.49;77.34;97470.52;103066;1319;107930;-77
2021/12/24 03:23:08;;;;;;;36.70;16.20;;;;;;;-4.50;77.59;97462.27;102838;1322;97902;-77
2021/12/24 03:25:38;;;;;;;33.50;15.60;;;;;;;-4.51;77.40;97459.33;103092;1317;98024;-76
2021/12/24 03:28:07;;;;;;;38.00;17.10;;;;;;;-4.49;77.56;97462.02;102869;1319;111566;-78
2021/12/24 03:30:34;;;;;;;34.80;16.80;;;;;;;-4.49;77.69;97470.00;103037;1319;97896;-77
2021/12/24 03:33:02;;;;;;;35.80;16.70;;;;;;;-4.49;77.57;97464.30;103040;1320;107765;-76
2021/12/24 03:35:33;;;;;;;29.60;14.70;;;;;;;-4.47;78.25;97448.46;103038;1320;96018;-75
2021/12/24 03:38:01;;;;;;;37.50;18.00;;;;;;;-4.48;78.48;97454.39;103069;1319;95721;-76
2021/12/24 03:40:28;;;;;;;35.40;17.10;;;;;;;-4.52;78.24;97448.84;102896;1319;111466;-75
2021/12/24 03:42:56;;;;;;;37.00;19.00;;;;;;;-4.51;78.32;97443.61;103029;1319;97967;-75
2021/12/24 03:45:40;;;;;;;35.60;16.30;;;;;;;-4.50;78.34;97439.08;103105;1319;107913;-75
2021/12/24 03:48:18;;;;;;;37.90;18.80;;;;;;;-4.49;78.39;97435.92;102970;1316;97912;-74
2021/12/24 03:56:05;;;;;;;32.40;15.50;;;;;;;-4.48;78.70;97431.90;103078;1316;97931;-75
2021/12/24 03:58:33;;;;;;;36.00;16.30;;;;;;;-4.46;78.92;97430.60;102915;1323;107829;-76
2021/12/24 04:01:01;;;;;;;37.80;18.40;;;;;;;-4.45;79.03;97420.86;103051;1317;97920;-75
2021/12/24 04:03:30;;;;;;;37.30;18.10;;;;;;;-4.45;79.03;97421.73;103085;1319;97412;-75
2021/12/24 04:06:00;;;;;;;37.20;17.00;;;;;;;-4.42;78.72;97422.32;103044;1319;111550;-76
2021/12/24 04:08:28;;;;;;;36.70;16.60;;;;;;;-4.39;78.82;97424.79;103065;1319;95883;-78
2021/12/24 04:10:55;;;;;;;42.10;19.40;;;;;;;-4.36;79.03;97424.34;103027;1319;107751;-76
2021/12/24 04:13:23;;;;;;;38.80;18.00;;;;;;;-4.34;78.79;97431.04;103097;1319;97915;-75
2021/12/24 04:15:53;;;;;;;37.10;18.00;;;;;;;-4.31;78.79;97428.48;103082;1317;97911;-75
2021/12/24 04:26:27;;;;;;;35.70;17.60;;;;;;;-4.23;78.89;97405.99;103051;1319;97997;-75
2021/12/24 04:28:55;;;;;;;37.00;18.20;;;;;;;-4.21;79.08;97402.98;102919;1319;95303;-74
2021/12/24 04:31:29;;;;;;;36.60;19.70;;;;;;;-4.19;79.18;97395.64;103058;1322;111249;-75
2021/12/24 04:34:02;;;;;;;42.10;19.40;;;;;;;-4.18;79.62;97400.61;103085;1322;97904;-75
2021/12/24 04:52:57;;;;;;;40.30;20.10;;;;;;;-4.11;79.61;97390.31;103035;1319;97848;-74
2021/12/24 05:03:46;;;;;;;34.80;17.60;;;;;;;-4.06;80.01;97393.76;103079;1319;107807;-74
2021/12/24 05:06:31;;;;;;;39.90;19.40;;;;;;;-4.05;80.09;97396.77;103090;1319;97911;-76
2021/12/24 05:09:07;;;;;;;36.50;18.80;;;;;;;-4.01;79.76;97400.84;102900;1316;97880;-74
2021/12/24 05:11:37;;;;;;;38.30;19.10;;;;;;;-4.00;79.76;97390.92;103077;1319;111566;-74
2021/12/24 05:14:05;;;;;;;37.00;19.60;;;;;;;-3.97;80.08;97397.55;103039;1322;97925;-74
2021/12/24 05:16:42;;;;;;;38.40;17.70;;;;;;;-3.96;80.18;97398.00;103074;1317;107763;-74
2021/12/24 05:21:58;;;;;;;38.40;19.80;;;;;;;-3.92;79.91;97394.38;103065;1319;95169;-74
2021/12/24 05:24:30;;;;;;;36.10;19.00;;;;;;;-3.88;80.14;97365.13;103079;1319;113410;-75
2021/12/24 05:27:03;;;;;;;36.80;18.00;;;;;;;-3.91;80.19;97352.42;102944;1319;97930;-74
2021/12/24 05:29:34;;;;;;;37.20;18.20;;;;;;;-3.92;80.23;97350.04;102956;1320;107933;-74
2021/12/24 05:32:02;;;;;;;38.00;19.70;;;;;;;-3.92;80.28;97347.79;103094;1317;95293;-75
2021/12/24 05:34:32;;;;;;;34.20;18.20;;;;;;;-3.92;80.73;97352.46;103080;1319;98667;-74
2021/12/24 05:37:00;;;;;;;34.70;17.20;;;;;;;-3.94;80.61;97349.98;103079;1319;111062;-75
2021/12/24 05:39:29;;;;;;;39.50;18.90;;;;;;;-3.93;80.44;97355.81;103015;1322;98044;-74
2021/12/24 05:41:58;;;;;;;38.20;18.70;;;;;;;-3.90;80.54;97347.89;103069;1321;106843;-74
2021/12/24 05:44:27;;;;;;;35.70;17.90;;;;;;;-3.87;80.63;97346.90;102845;1319;97984;-75
2021/12/24 05:46:55;;;;;;;35.00;18.30;;;;;;;-3.84;80.38;97347.14;103066;1319;97924;-75
2021/12/24 05:49:23;;;;;;;37.00;19.40;;;;;;;-3.81;80.54;97346.48;103088;1319;109240;-76
2021/12/24 05:51:51;;;;;;;39.00;20.70;;;;;;;-3.79;80.48;97347.45;103123;1316;95213;-77
2021/12/24 05:54:24;;;;;;;36.90;18.80;;;;;;;-3.79;80.61;97345.52;103033;1317;106834;-73
2021/12/24 05:56:51;;;;;;;36.70;18.30;;;;;;;-3.77;80.54;97351.16;102986;1318;96937;-74
2021/12/24 05:59:19;;;;;;;37.70;18.30;;;;;;;-3.75;80.45;97338.94;103018;1319;97895;-74
2021/12/24 06:01:47;;;;;;;36.40;18.70;;;;;;;-3.75;80.70;97346.20;103004;1321;111485;-74
2021/12/24 06:04:16;;;;;;;35.20;17.80;;;;;;;-3.73;80.50;97355.14;103017;1319;96511;-74
2021/12/24 06:06:44;;;;;;;40.20;19.90;;;;;;;-3.69;80.65;97352.05;103065;1322;107891;-74
2021/12/24 06:09:12;;;;;;;38.10;18.80;;;;;;;-3.67;80.69;97346.25;103075;1319;98001;-73
2021/12/24 06:11:40;;;;;;;39.50;20.70;;;;;;;-3.66;80.82;97343.78;103108;1319;97901;-74
2021/12/24 06:14:12;;;;;;;36.70;18.50;;;;;;;-3.65;80.66;97341.46;103062;1317;110406;-75
2021/12/24 06:16:48;;;;;;;35.80;17.80;;;;;;;-3.63;80.54;97340.20;103042;1319;98451;-75
2021/12/24 06:19:19;;;;;;;33.80;16.50;;;;;;;-3.61;80.54;97341.46;103085;1319;107822;-73
2021/12/24 06:21:48;;;;;;;37.30;18.90;;;;;;;-3.59;80.43;97342.95;103086;1316;97934;-74
2021/12/24 06:24:18;;;;;;;36.80;17.90;;;;;;;-3.57;80.62;97344.95;103113;1319;97930;-73
2021/12/24 06:26:49;;;;;;;34.30;16.00;;;;;;;-3.54;80.68;97349.48;103080;1319;111738;-73
2021/12/24 06:29:20;;;;;;;38.30;18.60;;;;;;;-3.51;80.78;97338.28;103119;1317;97978;-73
2021/12/24 06:31:51;;;;;;;37.10;18.30;;;;;;;-3.48;80.82;97342.51;103086;1317;107869;-74
2021/12/24 06:34:20;;;;;;;35.00;18.40;;;;;;;-3.46;80.82;97333.91;103078;1322;97893;-74
2021/12/24 06:36:51;;;;;;;36.70;19.30;;;;;;;-3.46;80.68;97332.68;102951;1319;95306;-74
2021/12/24 06:39:20;;;;;;;38.50;18.00;;;;;;;-3.44;80.92;97329.30;102986;1318;111394;-74
2021/12/24 06:41:47;;;;;;;38.30;19.10;;;;;;;-3.40;80.82;97343.90;103127;1322;97914;-80
2021/12/24 06:44:15;;;;;;;36.90;18.50;;;;;;;-3.38;80.82;97345.88;103207;1319;106823;-75
2021/12/24 06:46:43;;;;;;;36.10;18.00;;;;;;;-3.37;80.64;97349.09;102960;1318;97865;-77
2021/12/24 06:49:13;;;;;;;38.50;19.40;;;;;;;-3.33;80.67;97348.75;102990;1319;99065;-78
2021/12/24 06:51:41;;;;;;;36.70;18.90;;;;;;;-3.31;80.78;97341.23;103063;1319;111664;-77
2021/12/24 06:54:10;;;;;;;37.00;18.30;;;;;;;-3.34;81.01;97346.36;103049;1317;97912;-79
2021/12/24 06:56:49;;;;;;;38.00;19.00;;;;;;;-3.35;80.81;97345.23;102972;1322;107028;-75
2021/12/24 06:59:18;;;;;;;35.70;18.60;;;;;;;-3.37;80.87;97351.36;103110;1317;98056;-75
2021/12/24 07:01:50;;;;;;;36.60;18.70;;;;;;;-3.37;81.02;97353.45;102958;1318;97883;-74
2021/12/24 07:04:22;;;;;;;34.10;18.20;;;;;;;-3.37;80.94;97349.45;102997;1319;111465;-79
2021/12/24 07:06:50;;;;;;;39.30;20.50;;;;;;;-3.34;81.14;97348.79;103111;1317;96982;-80
2021/12/24 07:09:18;;;;;;;36.60;18.70;;;;;;;-3.33;80.88;97343.74;103059;1319;106829;-74
2021/12/24 07:11:48;;;;;;;38.50;18.50;;;;;;;-3.31;80.93;97336.88;103117;1323;97869;-74
2021/12/24 07:14:18;;;;;;;36.60;18.10;;;;;;;-3.29;81.23;97334.40;103082;1319;97080;-74
2021/12/24 07:16:46;;;;;;;39.70;20.10;;;;;;;-3.31;81.27;97337.77;102892;1322;111254;-74
2021/12/24 07:19:17;;;;;;;37.90;20.10;;;;;;;-3.32;81.17;97330.48;103105;1319;97906;-75
2021/12/24 07:21:44;;;;;;;37.10;19.70;;;;;;;-3.30;81.04;97331.82;103096;1317;107955;-73
2021/12/24 07:24:12;;;;;;;38.40;19.20;;;;;;;-3.29;81.01;97331.95;103215;1319;98002;-74
2021/12/24 07:26:40;;;;;;;34.00;19.20;;;;;;;-3.24;81.12;97331.21;103152;1316;95191;-71
2021/12/24 07:29:08;;;;;;;37.70;19.80;;;;;;;-3.23;81.28;97334.63;103226;1316;111586;-73
2021/12/24 07:31:36;;;;;;;33.00;16.40;;;;;;;-3.22;81.14;97330.25;103174;1317;97904;-74
2021/12/24 07:34:04;;;;;;;33.80;18.20;;;;;;;-3.20;81.22;97326.66;103213;1316;108011;-70
2021/12/24 07:36:34;;;;;;;38.70;20.20;;;;;;;-3.18;81.26;97321.05;103241;1316;98611;-75
2021/12/24 07:39:04;;;;;;;36.80;19.00;;;;;;;-3.16;81.14;97319.73;103092;1319;97970;-71
2021/12/24 07:41:32;;;;;;;34.90;18.30;;;;;;;-3.15;81.17;97323.85;103043;1316;110130;-71
2021/12/24 07:44:01;;;;;;;36.00;18.20;;;;;;;-3.14;81.31;97316.36;103185;1316;97924;-72
2021/12/24 07:46:37;;;;;;;34.20;17.60;;;;;;;-3.11;81.13;97322.13;103132;1319;108422;-72
2021/12/24 07:49:30;;;;;;;34.20;18.40;;;;;;;-3.07;81.23;97331.33;103011;1317;97014;-72
2021/12/24 07:54:40;;;;;;;34.50;18.60;;;;;;;-3.03;81.19;97328.52;103124;1316;111464;-74
2021/12/24 07:57:11;;;;;;;36.80;18.90;;;;;;;-3.00;81.07;97315.05;103173;1316;97966;-73
2021/12/24 07:59:42;;;;;;;36.70;18.00;;;;;;;-2.98;81.25;97311.15;103172;1316;107942;-71
2021/12/24 08:02:17;;;;;;;36.30;18.70;;;;;;;-2.97;81.26;97306.23;103214;1316;98034;-73
2021/12/24 08:04:47;;;;;;;34.50;17.70;;;;;;;-2.96;81.22;97304.96;102936;1323;98014;-70
2021/12/24 08:07:17;;;;;;;36.10;19.70;;;;;;;-2.91;81.17;97301.28;103101;1322;112927;-72
2021/12/24 08:09:47;;;;;;;35.80;18.50;;;;;;;-2.87;81.25;97303.19;103110;1319;97937;-75
2021/12/24 08:12:17;;;;;;;37.90;19.00;;;;;;;-2.84;81.35;97294.71;103122;1317;107741;-71
2021/12/24 08:14:47;;;;;;;35.50;18.20;;;;;;;-2.82;81.07;97303.13;102885;1323;95310;-71
2021/12/24 08:17:16;;;;;;;37.20;19.20;;;;;;;-2.78;81.07;97297.21;102948;1319;97880;-74
2021/12/24 08:19:45;;;;;;;37.00;19.00;;;;;;;-2.75;81.34;97297.59;103043;1319;110119;-73
2021/12/24 08:22:13;;;;;;;35.80;18.40;;;;;;;-2.71;81.43;97292.90;103118;1319;97805;-71
2021/12/24 08:24:45;;;;;;;40.10;20.60;;;;;;;-2.69;81.34;97288.45;103146;1316;107813;-72
2021/12/24 08:27:14;;;;;;;39.10;20.30;;;;;;;-2.66;81.57;97284.67;102803;1316;98754;-73
2021/12/24 08:29:43;;;;;;;36.00;17.60;;;;;;;-2.65;81.66;97276.65;103094;1315;97993;-74
2021/12/24 08:32:11;;;;;;;37.80;17.90;;;;;;;-2.65;81.52;97282.04;103056;1316;111079;-74
2021/12/24 08:34:42;;;;;;;35.90;18.80;;;;;;;-2.64;81.48;97281.43;103015;1316;97759;-73
2021/12/24 08:37:13;;;;;;;40.10;20.10;;;;;;;-2.62;81.54;97266.76;102995;1315;107805;-77
2021/12/24 08:39:41;;;;;;;37.70;19.60;;;;;;;-2.59;81.55;97274.25;103017;1317;97892;-75
2021/12/24 08:42:09;;;;;;;36.10;19.40;;;;;;;-2.54;81.61;97275.23;103102;1315;98603;-76
2021/12/24 08:44:37;;;;;;;35.80;18.50;;;;;;;-2.51;81.72;97290.90;102942;1318;111458;-76
2021/12/24 08:47:08;;;;;;;35.40;18.90;;;;;;;-2.50;81.75;97283.76;103098;1316;97879;-78
2021/12/24 08:49:37;;;;;;;39.90;20.10;;;;;;;-2.47;81.47;97282.23;102870;1318;107810;-75
2021/12/24 08:52:05;;;;;;;39.70;20.20;;;;;;;-2.47;81.74;97291.06;103086;1320;97140;-76
2021/12/24 08:54:34;;;;;;;38.50;19.90;;;;;;;-2.44;81.67;97281.89;103011;1315;98066;-75
2021/12/24 08:57:05;;;;;;;36.00;18.10;;;;;;;-2.40;81.56;97286.02;103056;1317;110749;-75
2021/12/24 08:59:34;;;;;;;35.10;18.00;;;;;;;-2.36;81.68;97281.17;103069;1315;97756;-74
2021/12/24 09:02:03;;;;;;;35.30;16.90;;;;;;;-2.35;81.87;97275.35;103092;1317;107905;-74
2021/12/24 09:04:33;;;;;;;38.10;20.10;;;;;;;-2.35;81.87;97284.42;103021;1319;95997;-73
2021/12/24 09:07:01;;;;;;;37.00;19.00;;;;;;;-2.35;81.58;97284.77;103073;1316;98003;-73
2021/12/24 09:09:29;;;;;;;37.10;20.30;;;;;;;-2.33;81.78;97271.48;103111;1316;109779;-72
2021/12/24 09:11:58;;;;;;;36.40;18.90;;;;;;;-2.33;81.67;97276.47;103105;1321;96555;-74
2021/12/24 09:14:26;;;;;;;36.20;19.10;;;;;;;-2.30;81.56;97272.01;103106;1316;107686;-75
2021/12/24 09:16:55;;;;;;;37.20;19.10;;;;;;;-2.28;81.66;97262.89;103209;1316;97950;-73
2021/12/24 09:19:26;;;;;;;37.30;18.90;;;;;;;-2.28;81.65;97259.04;103049;1319;97922;-75
2021/12/24 09:21:57;;;;;;;36.10;18.90;;;;;;;-2.25;81.65;97265.19;103114;1318;112505;-74
2021/12/24 09:24:30;;;;;;;37.60;18.70;;;;;;;-2.21;81.66;97272.25;103067;1318;97894;-73
2021/12/24 09:27:01;;;;;;;38.60;19.70;;;;;;;-2.18;81.95;97272.48;103103;1317;108589;-72
2021/12/24 09:29:29;;;;;;;36.70;17.70;;;;;;;-2.15;81.71;97266.59;103049;1320;97813;-73
2021/12/24 09:32:06;;;;;;;39.00;20.90;;;;;;;-2.12;81.59;97269.55;103088;1320;95639;-78
2021/12/24 09:34:34;;;;;;;37.80;19.60;;;;;;;-2.11;81.88;97262.03;103065;1319;111406;-71
2021/12/24 09:37:06;;;;;;;39.20;20.20;;;;;;;-2.08;81.56;97260.16;103180;1315;97911;-72
2021/12/24 09:39:37;;;;;;;35.80;18.30;;;;;;;-2.03;81.54;97250.35;103106;1317;107823;-72
2021/12/24 09:42:05;;;;;;;40.40;21.80;;;;;;;-2.04;81.91;97244.30;103106;1317;97892;-73
2021/12/24 09:44:33;;;;;;;33.70;17.20;;;;;;;-2.04;81.53;97237.52;103235;1316;97896;-76
2021/12/24 09:47:03;;;;;;;37.20;20.90;;;;;;;-1.99;81.74;97233.84;103220;1316;109790;-73
2021/12/24 09:49:35;;;;;;;37.40;20.40;;;;;;;-1.97;81.69;97227.95;103060;1317;97888;-72
2021/12/24 09:52:07;;;;;;;37.60;20.30;;;;;;;-1.96;81.45;97222.55;103190;1319;107815;-72
2021/12/24 09:54:35;;;;;;;35.30;18.50;;;;;;;-1.92;81.53;97214.88;103076;1319;98005;-73
2021/12/24 09:57:03;;;;;;;39.40;21.20;;;;;;;-1.88;81.61;97220.08;103117;1319;97941;-76
2021/12/24 09:59:31;;;;;;;40.10;20.90;;;;;;;-1.85;81.58;97213.80;103259;1316;111499;-74
2021/12/24 10:02:14;;;;;;;42.90;20.80;;;;;;;-1.80;81.46;97217.23;103100;1317;97965;-74
2021/12/24 10:04:45;;;;;;;41.10;20.10;;;;;;;-1.76;81.58;97206.38;103220;1316;107801;-73
2021/12/24 10:07:24;;;;;;;37.10;19.70;;;;;;;-1.71;81.57;97204.94;103207;1320;97911;-72
2021/12/24 10:10:06;;;;;;;39.80;19.90;;;;;;;-1.66;81.78;97201.19;103280;1316;97050;-74
2021/12/24 10:12:34;;;;;;;39.60;19.80;;;;;;;-1.61;81.76;97203.33;103257;1316;111145;-72
2021/12/24 10:15:04;;;;;;;35.50;18.40;;;;;;;-1.58;81.83;97206.66;103215;1319;97981;-77
2021/12/24 10:17:38;;;;;;;41.00;20.80;;;;;;;-1.52;81.81;97202.70;103061;1318;107946;-77
2021/12/24 10:20:22;;;;;;;40.20;19.80;;;;;;;-1.46;81.90;97202.03;103136;1317;97920;-75
2021/12/24 10:22:55;;;;;;;42.90;20.60;;;;;;;-1.42;81.72;97198.66;103068;1319;97944;-72
2021/12/24 10:25:30;;;;;;;37.10;19.40;;;;;;;-1.38;81.79;97193.25;103048;1319;114574;-71
2021/12/24 10:28:09;;;;;;;35.40;19.00;;;;;;;-1.35;81.81;97193.79;103050;1319;95895;-71
2021/12/24 10:30:37;;;;;;;39.30;20.30;;;;;;;-1.31;81.75;97186.63;103093;1319;107832;-73
2021/12/24 10:33:11;;;;;;;38.60;19.60;;;;;;;-1.28;81.74;97177.60;103141;1319;97837;-72
2021/12/24 10:35:39;;;;;;;38.40;20.00;;;;;;;-1.25;81.85;97178.67;103142;1319;96060;-71
2021/12/24 10:38:16;;;;;;;37.20;20.00;;;;;;;-1.23;81.67;97180.95;103625;1316;112467;-75
2021/12/24 10:41:08;;;;;;;35.80;19.70;;;;;;;-1.20;81.65;97181.33;103000;1317;98005;-73
2021/12/24 10:43:39;;;;;;;38.90;20.10;;;;;;;-1.17;81.74;97181.66;102911;1317;107931;-74
2021/12/24 10:46:23;;;;;;;39.70;20.50;;;;;;;-1.12;81.66;97184.02;103047;1317;98024;-77
2021/12/24 10:49:17;;;;;;;38.40;19.10;;;;;;;-1.08;81.75;97183.28;103118;1316;188711;-74
2021/12/24 10:55:11;;;;;;;35.10;18.30;;;;;;;-1.01;81.52;97182.75;102803;1316;97973;-76
2021/12/24 10:57:43;;;;;;;36.90;18.60;;;;;;;-0.97;81.65;97191.04;103100;1319;107898;-75
2021/12/24 11:00:13;;;;;;;34.20;16.80;;;;;;;-0.92;81.60;97185.37;103243;1317;98016;-79
2021/12/24 11:02:42;;;;;;;36.10;18.80;;;;;;;-0.88;81.68;97183.94;103248;1316;97033;-78
2021/12/24 11:05:29;;;;;;;40.00;20.70;;;;;;;-0.83;81.63;97182.63;103208;1315;111582;-77
2021/12/24 11:08:03;;;;;;;39.20;19.30;;;;;;;-0.79;81.77;97183.56;103213;1316;97916;-79
2021/12/24 11:10:37;;;;;;;37.50;19.10;;;;;;;-0.74;81.65;97179.66;103152;1316;107676;-77
2021/12/24 11:13:12;;;;;;;33.00;17.60;;;;;;;-0.69;81.71;97177.97;103205;1316;97992;-76
2021/12/24 11:15:53;;;;;;;37.00;19.30;;;;;;;-0.67;81.61;97177.48;103026;1319;96001;-78
2021/12/24 11:18:24;;;;;;;35.60;19.40;;;;;;;-0.66;81.70;97173.95;103102;1316;111025;-76
2021/12/24 11:20:57;;;;;;;36.90;19.30;;;;;;;-0.64;81.47;97171.44;102925;1321;96545;-76
2021/12/24 11:23:29;;;;;;;40.20;20.20;;;;;;;-0.62;81.64;97161.55;102858;1322;107917;-75
2021/12/24 11:26:03;;;;;;;37.90;19.90;;;;;;;-0.60;81.69;97158.83;103027;1320;97890;-75
2021/12/24 11:28:33;;;;;;;;;;;;;;;-0.56;81.56;97156.14;103149;1316;95907;-74
2021/12/24 11:31:07;;;;;;;38.30;19.20;;;;;;;-0.52;81.66;97156.10;103137;1316;111414;-75
2021/12/24 11:33:42;;;;;;;37.90;19.70;;;;;;;-0.47;81.63;97152.85;103104;1316;96718;-74
2021/12/24 11:36:16;;;;;;;38.00;19.00;;;;;;;-0.40;81.81;97153.88;102973;1320;107937;-73
2021/12/24 11:38:51;;;;;;;37.80;19.70;;;;;;;-0.37;81.77;97156.95;103081;1316;95921;-73
2021/12/24 11:41:25;;;;;;;36.90;20.30;;;;;;;-0.34;81.56;97154.72;103095;1320;95291;-73
2021/12/24 11:43:56;;;;;;;36.30;18.90;;;;;;;-0.33;81.64;97156.02;103090;1320;112318;-73
2021/12/24 11:46:26;;;;;;;35.70;19.50;;;;;;;-0.33;81.73;97151.14;102931;1317;97967;-74
2021/12/24 11:48:56;;;;;;;37.60;18.80;;;;;;;-0.33;81.54;97146.46;103063;1316;105488;-74
2021/12/24 11:51:33;;;;;;;37.50;19.70;;;;;;;-0.32;81.78;97144.51;102875;1319;98646;-73
2021/12/24 11:54:08;;;;;;;38.20;19.80;;;;;;;-0.31;81.73;97149.80;103235;1316;97885;-71
2021/12/24 11:56:50;;;;;;;37.20;19.00;;;;;;;-0.30;81.53;97148.75;103223;1316;111501;-72
2021/12/24 11:59:36;;;;;;;36.00;19.00;;;;;;;-0.31;81.61;97147.17;103185;1319;98511;-72
2021/12/24 12:02:07;;;;;;;36.50;19.00;;;;;;;-0.27;81.62;97142.34;103133;1315;107933;-71
2021/12/24 12:04:36;;;;;;;37.40;19.10;;;;;;;-0.29;81.66;97139.44;103086;1317;95236;-70
2021/12/24 12:07:15;;;;;;;35.20;18.60;;;;;;;-0.31;81.71;97147.91;103252;1315;98040;-70
2021/12/24 12:09:49;;;;;;;37.80;19.50;;;;;;;-0.30;81.55;97155.86;102875;1318;112193;-70
2021/12/24 12:12:36;;;;;;;38.00;19.50;;;;;;;-0.31;81.46;97162.35;103206;1316;97965;-71
2021/12/24 12:15:33;;;;;;;36.90;19.60;;;;;;;-0.31;81.56;97162.89;103072;1317;107736;-73
2021/12/24 12:18:05;;;;;;;33.30;16.70;;;;;;;-0.32;81.60;97157.38;103140;1322;97934;-73
2021/12/24 12:20:48;;;;;;;34.90;17.70;;;;;;;-0.31;81.62;97147.90;103025;1322;98594;-70
2021/12/24 12:26:39;;;;;;;37.00;19.00;;;;;;;-0.34;81.49;97117.09;102798;1317;97895;-71
2021/12/24 12:29:32;;;;;;;36.30;19.10;;;;;;;-0.32;81.51;97112.80;103074;1317;107609;-72
2021/12/24 12:32:12;;;;;;;37.30;18.80;;;;;;;-0.31;81.58;97110.42;103244;1316;98597;-72
2021/12/24 12:34:42;;;;;;;34.60;18.00;;;;;;;-0.26;81.64;97110.90;103244;1316;95316;-72
2021/12/24 12:37:24;;;;;;;36.70;18.60;;;;;;;-0.22;81.68;97112.21;103064;1318;111521;-72
2021/12/24 12:40:24;;;;;;;34.20;17.20;;;;;;;-0.17;81.64;97112.60;103110;1315;95206;-71
2021/12/24 12:43:14;;;;;;;35.20;17.90;;;;;;;-0.16;81.57;97107.80;103071;1316;107750;-69
2021/12/24 12:45:59;;;;;;;36.60;18.80;;;;;;;-0.11;81.63;97108.26;103050;1319;98009;-71
2021/12/24 12:48:49;;;;;;;35.30;17.00;;;;;;;-0.09;81.60;97104.47;103059;1317;95908;-71
2021/12/24 12:51:22;;;;;;;35.30;18.50;;;;;;;-0.07;81.57;97095.45;103102;1320;111488;-71
2021/12/24 12:53:51;;;;;;;34.60;18.20;;;;;;;-0.04;81.62;97107.48;103062;1317;97886;-72
2021/12/24 12:56:27;;;;;;;36.60;17.40;;;;;;;-0.01;81.64;97110.41;103056;1316;107877;-72
2021/12/24 12:59:04;;;;;;;34.20;17.90;;;;;;;0.03;81.66;97107.91;103093;1319;98020;-73
2021/12/24 13:02:01;;;;;;;35.70;17.90;;;;;;;0.04;81.57;97111.33;103035;1317;96506;-72
2021/12/24 13:04:33;;;;;;;35.20;18.40;;;;;;;0.01;81.64;97113.08;103053;1316;111438;-79
2021/12/24 13:07:01;;;;;;;34.60;17.80;;;;;;;0.00;81.67;97105.48;103080;1317;97847;-73
2021/12/24 13:09:33;;;;;;;35.80;17.90;;;;;;;0.03;81.62;97102.86;103141;1316;110319;-71
2021/12/24 13:12:04;;;;;;;33.60;17.80;;;;;;;0.02;81.55;97096.98;103060;1316;98058;-73
2021/12/24 13:14:36;;;;;;;35.80;18.30;;;;;;;0.03;81.54;97094.64;103117;1316;97847;-73
2021/12/24 13:25:17;;;;;;;36.50;18.40;;;;;;;0.06;81.45;97085.39;103104;1317;96569;-73
2021/12/24 13:27:51;;;;;;;37.20;17.70;;;;;;;0.07;81.42;97084.33;103247;1320;98692;-78